Impacts TAF Board
For situational awareness. Not to be used for flight planning purposes.
IDs:

KAMA - Amarillo Intl Arpt, TX, US

Issued at 1720 UTC 02 Aug 2021
Updated at 2202 UTC 02 Aug 2021
Potential Impact None Slight Moderate High
Time2153Z 02/23Z 03/00Z 03/01Z 03/02Z 03/03Z 03/04Z 03/05Z 03/06Z 03/07Z 03/08Z 03/09Z 03/10Z 03/11Z>>
Type OBS PRVL PRVL PRVL PRVL PRVL PRVL PRVL PRVL PRVL PRVL PRVL PRVL PRVL
VIS 10 6 6 >6 >6 >6 >6 >6 >6 >6 >6 >6 >6 >6
CIG -- -- -- -- -- -- -- -- -- -- -- -- -- --
Cover SCT FEW FEW FEW FEW FEW FEW FEW FEW FEW FEW FEW FEW SCT
FltCat VFR VFR VFR VFR VFR VFR VFR VFR VFR VFR VFR VFR VFR VFR
WX -- HZ HZ -- -- -- -- -- -- -- -- -- -- --
WDir 50 40 40 90 90 90 90 90 90 90 90 90 90 190
WSpd 10 6 6 7 7 7 7 7 7 7 7 7 7 6
WGst -- -- -- -- -- -- -- -- -- -- -- -- -- --
Raw TAF
KAMA 021720Z 0218/0318 04006KT 6SM HZ FEW180
  FM030100 09007KT P6SM FEW250
  FM031100 19006KT P6SM SCT200


Raw METAR
KAMA 022153Z 05010KT 10SM SCT075 28/10 A3019 RMK AO2 SLP174 T02830100 $
KAMA 022053Z 08008KT 10SM SCT070 28/11 A3021 RMK AO2 SLP182 T02780106 58020 $
KAMA 021953Z 9SM CLR 28/11 A3023 RMK AO2 SLP188 T02780111

METAR Board
Radar Display
Forecast Discussion
For situational awareness. Not to be used for flight planning purposes.